Time;durP1;ratioP1;P1;durP2;ratioP2;P2;SDS_P1;SDS_P2;PMS_P1;PMS_P2;Temp;Humidity;BMP_temperature;BMP_pressure;BME280_temperature;BME280_humidity;BME280_pressure;Samples;Min_cycle;Max_cycle;Signal;HPM_P1;HPM_P2
2021/09/17 00:00:04;;;;;;;;;;;;;;;21.14;69.44;101479.91;5077084;28;1911;-62
2021/09/17 00:02:29;;;;;;;;;;;;;;;21.13;69.80;101478.25;5076743;28;1909;-62
2021/09/17 00:04:54;;;;;;;;;;;;;;;21.11;69.67;101485.66;5076629;28;862;-62
2021/09/17 00:07:19;;;;;;;;;;;;;;;21.11;69.31;101469.41;5077154;28;1616;-62
2021/09/17 00:09:44;;;;;;;;;;;;;;;21.10;70.07;101477.69;5076814;28;931;-62
2021/09/17 00:12:09;;;;;;;;;;;;;;;21.08;69.90;101475.13;5076813;28;2007;-62
2021/09/17 00:14:35;;;;;;;;;;;;;;;21.07;69.90;101472.56;5076446;28;969;-62
2021/09/17 00:17:00;;;;;;;;;;;;;;;21.06;69.38;101469.00;5076919;28;2044;-62
2021/09/17 00:19:25;;;;;;;;;;;;;;;21.06;69.81;101457.31;5075987;28;1879;-62
2021/09/17 00:21:50;;;;;;;;;;;;;;;21.04;69.99;101462.88;5076242;28;1898;-63
2021/09/17 00:24:15;;;;;;;;;;;;;;;21.04;69.48;101456.59;5076755;28;918;-62
2021/09/17 00:26:40;;;;;;;;;;;;;;;21.03;69.11;101463.03;5076593;28;1454;-62
2021/09/17 00:29:05;;;;;;;;;;;;;;;21.02;69.18;101464.88;5076434;28;1021;-62
2021/09/17 00:31:30;;;;;;;;;;;;;;;21.01;69.22;101465.88;5076565;28;934;-62
2021/09/17 00:33:55;;;;;;;;;;;;;;;21.00;69.43;101463.31;5076066;28;1876;-62
2021/09/17 00:36:20;;;;;;;;;;;;;;;20.99;69.41;101459.75;5075861;28;1611;-62
2021/09/17 00:38:45;;;;;;;;;;;;;;;20.97;69.52;101453.63;5058232;28;993;-62
2021/09/17 00:41:11;;;;;;;;;;;;;;;20.98;69.73;101457.19;5076052;28;1894;-63
2021/09/17 00:43:36;;;;;;;;;;;;;;;20.95;69.59;101452.97;5076276;28;852;-63
2021/09/17 00:46:01;;;;;;;;;;;;;;;20.95;69.45;101454.81;5075920;28;953;-62
2021/09/17 00:48:26;;;;;;;;;;;;;;;20.94;69.08;101450.41;5076383;28;822;-62
2021/09/17 00:50:51;;;;;;;;;;;;;;;20.93;69.20;101452.25;5075561;28;2104;-63
2021/09/17 00:53:16;;;;;;;;;;;;;;;20.93;69.40;101454.97;5076120;28;800;-62
2021/09/17 00:55:41;;;;;;;;;;;;;;;20.93;69.64;101454.13;5075907;28;1068;-63
2021/09/17 00:58:06;;;;;;;;;;;;;;;20.91;69.77;101456.97;5076224;28;942;-62
2021/09/17 01:00:32;;;;;;;;;;;;;;;20.90;69.25;101455.28;5075230;28;1913;-62
2021/09/17 01:02:57;;;;;;;;;;;;;;;20.89;69.46;101450.84;5075833;28;1021;-63
2021/09/17 01:05:22;;;;;;;;;;;;;;;20.89;69.13;101445.44;5075213;28;1895;-63
2021/09/17 01:07:47;;;;;;;;;;;;;;;20.87;69.13;101444.72;5075394;28;1700;-63
2021/09/17 01:10:12;;;;;;;;;;;;;;;20.86;69.41;101445.72;5075868;28;1032;-62
2021/09/17 01:12:37;;;;;;;;;;;;;;;20.86;69.64;101437.59;5075898;28;929;-63
2021/09/17 01:15:02;;;;;;;;;;;;;;;20.86;69.66;101436.75;5075474;28;969;-63
2021/09/17 01:17:27;;;;;;;;;;;;;;;20.84;69.49;101430.63;5075631;28;1551;-63
2021/09/17 01:19:52;;;;;;;;;;;;;;;20.84;69.73;101433.34;5075250;28;1943;-63
2021/09/17 01:22:17;;;;;;;;;;;;;;;20.84;69.22;101430.63;5075134;28;1914;-63
2021/09/17 01:24:42;;;;;;;;;;;;;;;20.82;69.47;101430.78;5075468;28;2072;-63
2021/09/17 01:27:07;;;;;;;;;;;;;;;20.83;69.46;101418.94;5075167;28;839;-63
2021/09/17 01:29:32;;;;;;;;;;;;;;;20.80;69.87;101421.94;5075214;28;1049;-62
2021/09/17 01:31:58;;;;;;;;;;;;;;;20.80;69.11;101411.97;5075284;28;918;-62
2021/09/17 01:34:23;;;;;;;;;;;;;;;20.79;68.99;101407.53;5075629;28;901;-62
2021/09/17 01:36:48;;;;;;;;;;;;;;;20.78;69.12;101408.56;5075030;28;1867;-62
2021/09/17 01:39:13;;;;;;;;;;;;;;;20.79;69.25;101409.41;5074961;28;2005;-62
2021/09/17 01:41:38;;;;;;;;;;;;;;;20.77;69.35;101417.72;5075317;28;1905;-62
2021/09/17 01:44:03;;;;;;;;;;;;;;;20.77;69.48;101411.44;5075111;28;811;-63
2021/09/17 01:46:28;;;;;;;;;;;;;;;20.78;69.84;101405.03;5075347;28;1599;-62
2021/09/17 01:48:53;;;;;;;;;;;;;;;20.75;69.74;101405.31;5075034;28;932;-61
2021/09/17 01:51:18;;;;;;;;;;;;;;;20.76;69.70;101407.03;5074960;28;1885;-62
2021/09/17 01:53:43;;;;;;;;;;;;;;;20.75;69.37;101397.19;5056692;28;1884;-62
2021/09/17 01:56:08;;;;;;;;;;;;;;;20.73;69.19;101393.78;5075160;28;863;-62
2021/09/17 01:58:33;;;;;;;;;;;;;;;20.73;69.41;101388.38;5075094;28;1128;-62
2021/09/17 02:00:58;;;;;;;;;;;;;;;20.72;69.16;101381.25;5074833;28;1967;-62
2021/09/17 02:03:24;;;;;;;;;;;;;;;20.71;69.61;101388.50;5075255;28;965;-62
2021/09/17 02:05:49;;;;;;;;;;;;;;;20.71;69.71;101384.94;5075317;28;838;-62
2021/09/17 02:08:14;;;;;;;;;;;;;;;20.71;69.40;101393.06;5074498;28;1918;-62
2021/09/17 02:10:39;;;;;;;;;;;;;;;20.70;69.38;101389.50;5074927;28;1013;-62
2021/09/17 02:13:04;;;;;;;;;;;;;;;20.69;69.29;101382.38;5075316;28;918;-62
2021/09/17 02:15:29;;;;;;;;;;;;;;;20.69;69.80;101378.81;5077792;28;1976;-62
2021/09/17 02:17:54;;;;;;;;;;;;;;;20.68;69.84;101385.25;5078954;28;977;-62
2021/09/17 02:20:19;;;;;;;;;;;;;;;20.67;69.87;101384.41;5078738;28;1893;-62
2021/09/17 02:22:44;;;;;;;;;;;;;;;20.66;69.81;101382.69;5078716;28;1892;-62
2021/09/17 02:25:09;;;;;;;;;;;;;;;20.65;69.00;101380.13;5078946;28;934;-62
2021/09/17 02:27:34;;;;;;;;;;;;;;;20.64;69.39;101379.28;5078619;28;831;-62
2021/09/17 02:29:59;;;;;;;;;;;;;;;20.63;69.46;101377.56;5060433;28;800;-62
2021/09/17 02:32:24;;;;;;;;;;;;;;;20.63;69.47;101376.72;5078328;28;1049;-62
2021/09/17 02:34:50;;;;;;;;;;;;;;;20.62;69.38;101375.00;5078619;28;945;-62
2021/09/17 02:37:15;;;;;;;;;;;;;;;20.61;70.00;101368.75;5078454;28;853;-62
2021/09/17 02:39:40;;;;;;;;;;;;;;;20.60;69.23;101368.91;5078140;28;2013;-62
2021/09/17 02:42:05;;;;;;;;;;;;;;;20.62;69.48;101369.59;5078493;28;1961;-64
2021/09/17 02:44:30;;;;;;;;;;;;;;;20.60;69.41;101366.22;5078626;28;866;-65
2021/09/17 02:46:55;;;;;;;;;;;;;;;20.58;69.58;101358.25;5078023;28;1904;-64
2021/09/17 02:49:20;;;;;;;;;;;;;;;20.58;69.49;101357.38;5060611;28;1110;-62
2021/09/17 02:51:47;;;;;;;;;;;;;;;20.58;69.50;101357.38;5078140;28;1013;-62
2021/09/17 02:54:12;;;;;;;;;;;;;;;20.56;69.49;101357.53;5078157;28;1870;-62
2021/09/17 02:56:37;;;;;;;;;;;;;;;20.56;70.01;101353.97;5077829;28;2056;-62
2021/09/17 02:59:02;;;;;;;;;;;;;;;20.55;69.34;101349.56;5077981;28;1120;-61
2021/09/17 03:01:27;;;;;;;;;;;;;;;20.54;69.54;101346.00;5077840;28;1977;-61
2021/09/17 03:03:52;;;;;;;;;;;;;;;20.53;69.60;101348.84;5077698;28;877;-61
2021/09/17 03:06:17;;;;;;;;;;;;;;;20.53;69.17;101344.28;5078099;28;1631;-61
2021/09/17 03:08:42;;;;;;;;;;;;;;;20.52;69.48;101344.44;5078105;28;961;-61
2021/09/17 03:11:07;;;;;;;;;;;;;;;20.52;69.57;101344.44;5077617;28;2107;-61
2021/09/17 03:13:32;;;;;;;;;;;;;;;20.50;69.41;101339.19;5077950;28;973;-62
2021/09/17 03:15:57;;;;;;;;;;;;;;;20.51;69.90;101340.03;5077795;28;856;-62
2021/09/17 03:18:22;;;;;;;;;;;;;;;20.49;69.38;101337.47;5077774;28;1876;-62
2021/09/17 03:20:49;;;;;;;;;;;;;;;20.49;69.58;101332.06;5077704;28;1951;-61
2021/09/17 03:23:14;;;;;;;;;;;;;;;20.50;69.35;101332.91;5077365;28;925;-61
2021/09/17 03:25:39;;;;;;;;;;;;;;;20.48;69.65;101324.09;5076596;28;1993;-61
2021/09/17 03:28:04;;;;;;;;;;;;;;;20.49;69.26;101325.78;5077295;28;956;-62
2021/09/17 03:30:29;;;;;;;;;;;;;;;20.48;69.99;101315.97;5077506;28;1044;-61
2021/09/17 03:32:54;;;;;;;;;;;;;;;20.47;69.90;101325.09;5077928;28;982;-62
2021/09/17 03:35:19;;;;;;;;;;;;;;;20.46;69.98;101321.53;5077570;28;886;-62
2021/09/17 03:37:45;;;;;;;;;;;;;;;20.44;69.78;101316.25;5077723;28;854;-62
2021/09/17 03:40:10;;;;;;;;;;;;;;;20.44;69.91;101312.69;5077865;28;854;-61
2021/09/17 03:42:35;;;;;;;;;;;;;;;20.43;69.50;101309.13;5077389;28;2017;-63
2021/09/17 03:45:00;;;;;;;;;;;;;;;20.43;69.16;101311.84;5077189;28;1048;-63
2021/09/17 03:47:25;;;;;;;;;;;;;;;20.43;69.48;101314.56;5077044;28;984;-63
2021/09/17 03:49:50;;;;;;;;;;;;;;;20.42;69.15;101315.56;5077093;28;1461;-63
2021/09/17 03:52:15;;;;;;;;;;;;;;;20.41;69.38;101311.19;5077016;28;922;-63
2021/09/17 03:54:40;;;;;;;;;;;;;;;20.41;69.09;101310.31;5076792;28;1974;-63
2021/09/17 03:57:05;;;;;;;;;;;;;;;20.40;69.24;101306.75;5077500;28;1858;-63
2021/09/17 03:59:30;;;;;;;;;;;;;;;20.40;69.90;101306.75;5077208;28;1354;-63
2021/09/17 04:02:00;;;;;;;;;;;;;;;20.39;69.79;101305.06;5076830;28;1976;-63
2021/09/17 04:04:25;;;;;;;;;;;;;;;20.39;69.88;101312.31;5076832;28;842;-63
2021/09/17 04:06:50;;;;;;;;;;;;;;;20.39;69.82;101312.31;5076912;28;1009;-63
2021/09/17 04:09:15;;;;;;;;;;;;;;;20.37;69.42;101307.06;5077129;28;921;-63
2021/09/17 04:11:40;;;;;;;;;;;;;;;20.37;69.42;101312.47;5076294;28;1955;-64
2021/09/17 04:14:06;;;;;;;;;;;;;;;20.37;69.26;101307.06;5077222;28;826;-63
2021/09/17 04:16:31;;;;;;;;;;;;;;;20.36;69.52;101308.06;5076487;28;1919;-63
2021/09/17 04:18:56;;;;;;;;;;;;;;;20.36;69.05;101305.34;5076815;28;838;-62
2021/09/17 04:21:21;;;;;;;;;;;;;;;20.34;69.14;101307.31;5076654;28;1894;-63
2021/09/17 04:23:46;;;;;;;;;;;;;;;20.34;69.34;101306.47;5076821;28;1550;-63
2021/09/17 04:26:11;;;;;;;;;;;;;;;20.34;69.28;101311.88;5076805;28;1851;-63
2021/09/17 04:28:36;;;;;;;;;;;;;;;20.33;69.64;101299.34;5058437;28;1076;-63
2021/09/17 04:31:01;;;;;;;;;;;;;;;20.32;69.21;101298.50;5076835;28;859;-62
2021/09/17 04:33:26;;;;;;;;;;;;;;;20.33;68.97;101299.34;5076653;28;890;-63
2021/09/17 04:35:51;;;;;;;;;;;;;;;20.31;69.67;101307.63;5058170;28;1922;-63
2021/09/17 04:38:16;;;;;;;;;;;;;;;20.31;69.75;101302.22;5076593;28;981;-63
2021/09/17 04:40:41;;;;;;;;;;;;;;;20.30;69.47;101300.50;5076528;28;1894;-62
2021/09/17 04:43:06;;;;;;;;;;;;;;;20.29;69.78;101301.50;5076164;28;1997;-63
2021/09/17 04:45:32;;;;;;;;;;;;;;;20.29;69.07;101304.22;5069471;28;1481;-64
2021/09/17 04:47:57;;;;;;;;;;;;;;;20.28;69.23;101307.91;5063630;28;1235;-62
2021/09/17 04:50:22;;;;;;;;;;;;;;;20.29;69.67;101306.06;5064933;28;1352;-63
2021/09/17 04:52:48;;;;;;;;;;;;;;;20.28;69.27;101301.66;5060793;28;1417;-63
2021/09/17 04:55:13;;;;;;;;;;;;;;;20.28;68.93;101307.91;5055822;28;1128;-63
2021/09/17 04:57:38;;;;;;;;;;;;;;;20.27;69.09;101300.81;5064213;28;1500;-63
2021/09/17 05:00:03;;;;;;;;;;;;;;;20.27;68.91;101308.91;5063824;28;1501;-64
2021/09/17 05:02:28;;;;;;;;;;;;;;;20.27;69.86;101308.06;5062963;28;1913;-65
2021/09/17 05:04:54;;;;;;;;;;;;;;;20.27;69.47;101308.06;5064348;28;1272;-65
2021/09/17 05:07:19;;;;;;;;;;;;;;;20.26;69.23;101303.66;5065565;28;1350;-65
2021/09/17 05:09:44;;;;;;;;;;;;;;;20.25;69.43;101302.81;5066816;28;1456;-64
2021/09/17 05:12:09;;;;;;;;;;;;;;;20.25;69.38;101305.50;5070482;28;1437;-62
2021/09/17 05:14:34;;;;;;;;;;;;;;;20.23;69.49;101304.84;5066001;28;1466;-64
2021/09/17 05:16:59;;;;;;;;;;;;;;;20.24;69.46;101306.53;5072447;28;1664;-64
2021/09/17 05:19:25;;;;;;;;;;;;;;;20.24;69.66;101316.50;5064269;28;1699;-64
2021/09/17 05:21:50;;;;;;;;;;;;;;;20.23;69.70;101309.41;5067652;28;1952;-64
2021/09/17 05:24:15;;;;;;;;;;;;;;;20.22;69.66;101308.53;5066118;28;1577;-64
2021/09/17 05:26:40;;;;;;;;;;;;;;;20.22;69.36;101307.69;5065281;28;1630;-64
2021/09/17 05:29:05;;;;;;;;;;;;;;;20.21;69.04;101306.84;5061200;28;1848;-64
2021/09/17 05:31:30;;;;;;;;;;;;;;;20.20;69.33;101310.53;5065599;28;2312;-64
2021/09/17 05:33:55;;;;;;;;;;;;;;;20.20;68.87;101305.13;5067494;28;1649;-64
2021/09/17 05:36:20;;;;;;;;;;;;;;;20.19;68.84;101306.13;5063337;28;1455;-64
2021/09/17 05:38:45;;;;;;;;;;;;;;;20.19;69.67;101306.13;5060929;28;1479;-64
2021/09/17 05:41:10;;;;;;;;;;;;;;;20.19;68.87;101303.44;5063487;28;1957;-64
2021/09/17 05:43:35;;;;;;;;;;;;;;;20.19;68.81;101302.56;5044410;28;1759;-64
2021/09/17 05:46:01;;;;;;;;;;;;;;;20.18;69.55;101301.72;5070424;28;1731;-64
2021/09/17 05:48:26;;;;;;;;;;;;;;;20.17;69.25;101305.44;5070723;28;1316;-64
2021/09/17 05:50:51;;;;;;;;;;;;;;;20.17;69.07;101316.25;5065529;28;1376;-64
2021/09/17 05:53:16;;;;;;;;;;;;;;;20.17;69.51;101308.13;5055828;28;1775;-64
2021/09/17 05:55:41;;;;;;;;;;;;;;;20.16;69.07;101309.13;5054665;28;852;-64
2021/09/17 05:58:06;;;;;;;;;;;;;;;20.16;69.55;101309.13;5054747;28;989;-64
2021/09/17 06:00:31;;;;;;;;;;;;;;;20.16;69.56;101314.56;5066960;28;1984;-64
2021/09/17 06:02:56;;;;;;;;;;;;;;;20.15;69.47;101312.84;5074557;28;1686;-64
2021/09/17 06:05:21;;;;;;;;;;;;;;;20.14;69.38;101316.53;5075118;28;937;-64
2021/09/17 06:07:46;;;;;;;;;;;;;;;20.13;69.24;101314.84;5074545;28;961;-64
2021/09/17 06:10:11;;;;;;;;;;;;;;;20.14;69.39;101315.69;5071357;28;1338;-64
2021/09/17 06:12:37;;;;;;;;;;;;;;;20.13;69.37;101320.25;5074736;28;902;-64
2021/09/17 06:15:02;;;;;;;;;;;;;;;20.13;69.55;101311.28;5074543;28;791;-64
2021/09/17 06:17:27;;;;;;;;;;;;;;;20.13;69.69;101311.28;5074393;28;1943;-64
2021/09/17 06:19:53;;;;;;;;;;;;;;;20.13;69.32;101317.53;5074792;28;870;-64
2021/09/17 06:22:18;;;;;;;;;;;;;;;20.12;69.31;101310.44;5074335;28;1894;-64
2021/09/17 06:24:43;;;;;;;;;;;;;;;20.11;69.08;101309.56;5074050;28;819;-65
2021/09/17 06:27:08;;;;;;;;;;;;;;;20.11;68.81;101314.13;5074113;28;1053;-64
2021/09/17 06:29:33;;;;;;;;;;;;;;;20.10;69.51;101313.28;5074493;28;985;-64
2021/09/17 06:31:58;;;;;;;;;;;;;;;20.11;69.09;101309.56;5056139;28;1764;-64
2021/09/17 06:34:23;;;;;;;;;;;;;;;20.10;69.41;101307.03;5074338;28;787;-64
2021/09/17 06:36:48;;;;;;;;;;;;;;;20.09;68.76;101310.72;5074455;28;787;-64
2021/09/17 06:39:17;;;;;;;;;;;;;;;20.09;69.39;101308.88;5074139;28;1725;-64
2021/09/17 06:41:42;;;;;;;;;;;;;;;20.09;68.87;101308.88;5054714;28;1890;-65
2021/09/17 06:44:07;;;;;;;;;;;;;;;20.12;68.58;101296.91;5054528;28;1998;-65
2021/09/17 06:46:32;;;;;;;;;;;;;;;20.18;69.53;101301.72;5075377;28;1986;-64
2021/09/17 06:48:57;;;;;;;;;;;;;;;20.22;69.00;101291.44;5088736;28;1771;-65
2021/09/17 06:51:22;;;;;;;;;;;;;;;20.25;68.58;101297.38;5091229;28;1288;-65
2021/09/17 06:53:47;;;;;;;;;;;;;;;20.27;69.07;101289.97;5091990;28;1380;-65
2021/09/17 06:56:12;;;;;;;;;;;;;;;20.27;69.34;101300.81;5091882;28;1247;-66
2021/09/17 06:58:37;;;;;;;;;;;;;;;20.31;69.25;101296.78;5091964;28;1371;-66
2021/09/17 07:01:03;;;;;;;;;;;;;;;20.34;69.47;101301.91;5091832;28;1959;-66
2021/09/17 07:03:28;;;;;;;;;;;;;;;20.37;69.85;101307.06;5090027;28;1699;-67
2021/09/17 07:05:53;;;;;;;;;;;;;;;20.40;69.55;101301.34;5078400;28;1773;-64
2021/09/17 07:08:21;;;;;;;;;;;;;;;20.44;69.91;101301.88;5078255;28;1304;-64
2021/09/17 07:10:46;;;;;;;;;;;;;;;20.44;69.37;101308.13;5078760;28;1276;-66
2021/09/17 07:13:11;;;;;;;;;;;;;;;20.47;69.63;101306.97;5080821;28;1378;-65
2021/09/17 07:15:36;;;;;;;;;;;;;;;20.51;70.04;101300.25;5078696;28;1351;-65
2021/09/17 07:18:01;;;;;;;;;;;;;;;20.54;70.39;101307.25;5078900;28;1300;-67
2021/09/17 07:20:26;;;;;;;;;;;;;;;20.53;69.91;101295.56;5078409;28;1957;-66
2021/09/17 07:22:51;;;;;;;;;;;;;;;20.54;69.66;101296.41;5079674;28;1249;-66
2021/09/17 07:25:19;;;;;;;;;;;;;;;20.54;70.24;101296.41;5080019;28;1163;-68
2021/09/17 07:27:44;;;;;;;;;;;;;;;20.54;70.20;101312.66;5075217;28;1756;-68
2021/09/17 07:30:09;;;;;;;;;;;;;;;20.54;69.59;101312.66;5078746;28;1290;-67
2021/09/17 07:32:34;;;;;;;;;;;;;;;20.53;69.98;101306.38;5078543;28;1240;-66
2021/09/17 07:34:59;;;;;;;;;;;;;;;20.53;70.27;101311.81;5079040;28;1553;-69
2021/09/17 07:37:24;;;;;;;;;;;;;;;20.52;69.86;101301.97;5077631;28;1304;-69
2021/09/17 07:39:49;;;;;;;;;;;;;;;20.53;70.18;101308.25;5068487;28;1412;-67
2021/09/17 07:42:14;;;;;;;;;;;;;;;20.54;69.47;101307.25;5075970;28;1902;-63
2021/09/17 07:44:39;;;;;;;;;;;;;;;20.54;69.71;101307.25;5077729;28;1387;-66
2021/09/17 07:47:04;;;;;;;;;;;;;;;20.56;69.57;101302.53;5079875;28;1247;-65
2021/09/17 07:49:29;;;;;;;;;;;;;;;20.55;69.85;101304.38;5073919;28;1820;-68
2021/09/17 07:51:55;;;;;;;;;;;;;;;20.56;69.57;101297.97;5072170;28;1439;-66
2021/09/17 07:54:20;;;;;;;;;;;;;;;20.59;70.26;101304.94;5064997;28;1573;-64
2021/09/17 07:56:45;;;;;;;;;;;;;;;20.56;70.04;101305.22;5059782;28;2116;-63
2021/09/17 07:59:10;;;;;;;;;;;;;;;20.56;69.61;101308.78;5065530;28;1662;-66
2021/09/17 08:01:35;;;;;;;;;;;;;;;20.58;70.03;101314.06;5059173;28;1977;-64
2021/09/17 08:04:00;;;;;;;;;;;;;;;20.60;70.25;101314.75;5060574;28;1901;-66
2021/09/17 08:06:25;;;;;;;;;;;;;;;20.61;69.67;101309.16;5077066;28;1980;-65
2021/09/17 08:08:50;;;;;;;;;;;;;;;20.63;69.55;101309.88;5076916;28;970;-65
2021/09/17 08:11:15;;;;;;;;;;;;;;;20.65;69.75;101309.72;5076719;28;1068;-64
2021/09/17 08:13:40;;;;;;;;;;;;;;;20.66;69.82;101308.72;5076535;28;1640;-64
2021/09/17 08:16:05;;;;;;;;;;;;;;;20.66;69.25;101312.28;5076755;28;871;-63
2021/09/17 08:18:30;;;;;;;;;;;;;;;20.68;69.18;101321.09;5075218;28;997;-65
2021/09/17 08:20:58;;;;;;;;;;;;;;;20.71;69.42;101314.53;5076135;28;1906;-65
2021/09/17 08:23:23;;;;;;;;;;;;;;;20.66;69.38;101319.53;5075780;28;1617;-66
2021/09/17 08:25:50;;;;;;;;;;;;;;;20.65;68.78;101317.84;5061915;28;1353;-64
2021/09/17 08:28:15;;;;;;;;;;;;;;;20.66;69.52;101311.41;5065704;28;1497;-66
2021/09/17 08:30:40;;;;;;;;;;;;;;;20.69;69.69;101321.94;5065145;28;1259;-66
2021/09/17 08:33:05;;;;;;;;;;;;;;;20.69;69.55;101322.81;5066192;28;1273;-68
2021/09/17 08:35:30;;;;;;;;;;;;;;;20.71;69.66;101320.78;5065076;28;1495;-68
2021/09/17 08:37:55;;;;;;;;;;;;;;;20.72;69.22;101324.34;5080324;28;1443;-67
2021/09/17 08:40:20;;;;;;;;;;;;;;;20.73;69.48;101323.34;5084733;28;1322;-65
2021/09/17 08:42:45;;;;;;;;;;;;;;;20.73;68.99;101318.78;5089964;28;1878;-71
2021/09/17 08:45:11;;;;;;;;;;;;;;;20.74;69.62;101322.34;5045995;28;1809;-71
2021/09/17 08:47:36;;;;;;;;;;;;;;;20.75;69.72;101326.75;5080235;28;1293;-71
2021/09/17 08:50:01;;;;;;;;;;;;;;;20.82;69.05;101324.28;5069304;28;1416;-65
2021/09/17 08:52:26;;;;;;;;;;;;;;;20.76;68.82;101329.31;5086886;28;1712;-65
2021/09/17 08:54:51;;;;;;;;;;;;;;;20.72;69.66;101327.06;5080163;28;1262;-65
2021/09/17 08:57:16;;;;;;;;;;;;;;;20.71;69.12;101331.63;5083951;28;1290;-67
2021/09/17 08:59:43;;;;;;;;;;;;;;;20.72;69.13;101327.91;5068348;28;1263;-68
2021/09/17 09:02:08;;;;;;;;;;;;;;;20.75;69.24;101326.75;5064681;28;1914;-68
2021/09/17 09:04:41;;;;;;;;;;;;;;;20.77;68.77;101325.63;5062923;28;1306;-64
2021/09/17 09:07:06;;;;;;;;;;;;;;;20.83;69.25;101326.81;5071415;28;1469;-67
2021/09/17 09:09:31;;;;;;;;;;;;;;;20.84;69.11;101331.25;5058803;28;1850;-64
2021/09/17 09:11:56;;;;;;;;;;;;;;;20.86;69.33;101334.66;5059714;28;1330;-66
2021/09/17 09:14:21;;;;;;;;;;;;;;;20.88;68.97;101338.06;5047386;28;1498;-66
2021/09/17 09:16:46;;;;;;;;;;;;;;;20.88;68.91;101329.94;5045013;28;1349;-67
2021/09/17 09:19:11;;;;;;;;;;;;;;;20.91;68.48;101332.34;5040708;28;1393;-67
2021/09/17 09:21:36;;;;;;;;;;;;;;;20.90;68.86;101330.63;5042920;28;1953;-66
2021/09/17 09:24:01;;;;;;;;;;;;;;;20.95;68.88;101335.59;5049633;28;1430;-65
2021/09/17 09:26:26;;;;;;;;;;;;;;;20.93;68.14;101333.03;5055658;28;1032;-67
2021/09/17 09:28:52;;;;;;;;;;;;;;;20.95;68.55;101322.91;5055114;28;814;-68
2021/09/17 09:31:18;;;;;;;;;;;;;;;20.97;68.45;101326.28;5041140;28;1619;-64
2021/09/17 09:33:44;;;;;;;;;;;;;;;20.98;68.61;101325.28;5040828;28;1338;-65
2021/09/17 09:36:09;;;;;;;;;;;;;;;20.98;68.57;101330.69;5041253;28;1109;-64
2021/09/17 09:38:34;;;;;;;;;;;;;;;20.99;68.30;101328.84;5047522;28;1455;-64
2021/09/17 09:40:59;;;;;;;;;;;;;;;20.99;68.67;101328.84;5043482;28;1906;-64
2021/09/17 09:43:24;;;;;;;;;;;;;;;21.04;68.82;101332.78;5056824;28;1311;-68
2021/09/17 09:45:49;;;;;;;;;;;;;;;21.04;68.36;101332.78;5062275;28;1346;-64
2021/09/17 09:48:14;;;;;;;;;;;;;;;21.06;68.49;101319.94;5069894;28;1409;-71
2021/09/17 09:50:39;;;;;;;;;;;;;;;21.10;68.53;101325.91;5057851;28;1477;-70
2021/09/17 09:53:04;;;;;;;;;;;;;;;21.10;68.41;101326.75;5068692;28;1325;-69
2021/09/17 09:55:29;;;;;;;;;;;;;;;21.07;68.66;101327.06;5053889;28;1725;-66
2021/09/17 09:57:54;;;;;;;;;;;;;;;21.12;68.56;101323.91;5067061;28;1258;-65
2021/09/17 10:00:20;;;;;;;;;;;;;;;21.13;68.55;101331.03;5070631;28;1288;-64
2021/09/17 10:02:45;;;;;;;;;;;;;;;21.13;68.35;101325.59;5071413;28;1902;-64
2021/09/17 10:05:10;;;;;;;;;;;;;;;21.13;68.45;101325.59;5064092;28;1417;-64
2021/09/17 10:07:35;;;;;;;;;;;;;;;21.13;68.43;101318.31;5074343;28;1305;-65
2021/09/17 10:10:00;;;;;;;;;;;;;;;21.13;68.18;101321.03;5080530;28;1437;-68
2021/09/17 10:12:26;;;;;;;;;;;;;;;21.17;68.32;101320.69;5082233;28;1292;-67
2021/09/17 10:14:52;;;;;;;;;;;;;;;21.19;68.11;101321.41;5090659;28;1281;-64
2021/09/17 10:17:20;;;;;;;;;;;;;;;21.26;68.38;101325.22;5081748;28;1272;-64
2021/09/17 10:19:45;;;;;;;;;;;;;;;21.26;68.29;101320.66;5082946;28;1079;-64
2021/09/17 10:22:10;;;;;;;;;;;;;;;21.30;67.64;101318.50;5088563;28;1967;-64
2021/09/17 10:24:36;;;;;;;;;;;;;;;21.34;67.60;101323.41;5065832;28;1549;-65
2021/09/17 10:27:02;;;;;;;;;;;;;;;21.28;67.81;101323.22;5071497;28;1281;-65
2021/09/17 10:29:27;;;;;;;;;;;;;;;21.23;67.73;101326.38;5080808;28;1423;-65
2021/09/17 10:31:54;;;;;;;;;;;;;;;21.23;67.41;101322.81;5065883;28;1495;-65
2021/09/17 10:34:22;;;;;;;;;;;;;;;21.21;67.58;101316.69;5069801;28;1738;-65
2021/09/17 10:36:47;;;;;;;;;;;;;;;21.21;67.72;101319.41;5070914;28;1419;-65
2021/09/17 10:39:12;;;;;;;;;;;;;;;21.19;67.55;101316.81;5071003;28;1515;-65
2021/09/17 10:41:37;;;;;;;;;;;;;;;21.20;67.99;101320.41;5067269;28;1889;-65
2021/09/17 10:44:02;;;;;;;;;;;;;;;21.20;68.09;101317.72;5071091;28;1380;-65
2021/09/17 10:46:29;;;;;;;;;;;;;;;21.20;67.77;101317.72;5068403;28;1634;-65
2021/09/17 10:48:56;;;;;;;;;;;;;;;21.17;67.89;101309.84;5062997;28;1546;-65
2021/09/17 10:51:21;;;;;;;;;;;;;;;21.20;68.26;101310.44;5062860;28;1662;-65
2021/09/17 10:53:48;;;;;;;;;;;;;;;21.20;68.20;101315.00;5071233;28;1655;-65
2021/09/17 10:56:13;;;;;;;;;;;;;;;21.21;67.69;101311.28;5067311;28;1582;-65
2021/09/17 10:58:39;;;;;;;;;;;;;;;21.21;68.03;101309.44;5062494;28;1743;-65
2021/09/17 11:01:04;;;;;;;;;;;;;;;21.22;67.87;101310.28;5063900;28;1946;-65
2021/09/17 11:03:29;;;;;;;;;;;;;;;21.28;67.48;101296.09;5071407;28;1572;-67
2021/09/17 11:05:54;;;;;;;;;;;;;;;21.33;67.38;101299.16;5077838;28;1545;-66
2021/09/17 11:08:19;;;;;;;;;;;;;;;21.41;67.24;101302.81;5070517;28;1651;-71
2021/09/17 11:10:44;;;;;;;;;;;;;;;21.42;67.50;101304.50;5081434;28;1570;-71
2021/09/17 11:13:09;;;;;;;;;;;;;;;21.45;67.44;101303.34;5094980;28;1855;-69
2021/09/17 11:15:34;;;;;;;;;;;;;;;21.46;67.63;101308.59;5087401;28;1463;-71
2021/09/17 11:18:08;;;;;;;;;;;;;;;21.52;67.34;101293.53;5091043;28;1274;-69
2021/09/17 11:20:33;;;;;;;;;;;;;;;21.52;67.51;101293.53;5080388;28;1897;-70
2021/09/17 11:22:58;;;;;;;;;;;;;;;21.55;67.68;101297.78;5090753;28;1392;-71
2021/09/17 11:25:23;;;;;;;;;;;;;;;21.50;67.30;101300.16;5068657;28;1294;-66
2021/09/17 11:27:48;;;;;;;;;;;;;;;21.51;67.52;101302.69;5068477;28;1602;-66
2021/09/17 11:30:13;;;;;;;;;;;;;;;21.50;67.36;101298.28;5087923;28;1854;-65
2021/09/17 11:32:39;;;;;;;;;;;;;;;21.53;67.62;101297.09;5079769;28;1288;-67
2021/09/17 11:35:04;;;;;;;;;;;;;;;21.51;67.91;101302.69;5070005;28;1432;-68
2021/09/17 11:37:29;;;;;;;;;;;;;;;21.53;67.70;101310.66;5093518;28;1459;-68
2021/09/17 11:39:54;;;;;;;;;;;;;;;21.54;67.78;101309.66;5087563;28;1333;-67
2021/09/17 11:42:19;;;;;;;;;;;;;;;21.58;67.50;101303.75;5078247;28;1890;-68
2021/09/17 11:44:46;;;;;;;;;;;;;;;21.61;67.47;101302.59;5075018;28;1488;-67
2021/09/17 11:47:11;;;;;;;;;;;;;;;21.62;67.35;101310.56;5072961;28;1454;-67
2021/09/17 11:49:37;;;;;;;;;;;;;;;21.64;67.20;101308.56;5089985;28;1369;-68
2021/09/17 11:52:02;;;;;;;;;;;;;;;21.66;67.53;101308.41;5086783;28;1370;-69
2021/09/17 11:54:27;;;;;;;;;;;;;;;21.67;67.38;101310.09;5082854;28;1281;-68
2021/09/17 11:56:52;;;;;;;;;;;;;;;21.64;67.59;101300.41;5093066;28;1388;-70
2021/09/17 11:59:18;;;;;;;;;;;;;;;21.62;67.52;101305.16;5080167;28;1705;-67
2021/09/17 12:01:43;;;;;;;;;;;;;;;21.67;67.56;101308.25;5088572;28;1968;-65
2021/09/17 12:04:08;;;;;;;;;;;;;;;21.70;67.50;101296.19;5087877;28;1284;-69
2021/09/17 12:06:33;;;;;;;;;;;;;;;21.67;67.49;101300.09;5081592;28;1158;-68
2021/09/17 12:08:59;;;;;;;;;;;;;;;21.70;67.41;101297.03;5080624;28;1234;-65
2021/09/17 12:11:24;;;;;;;;;;;;;;;21.77;67.46;101295.41;5091116;28;1246;-65
2021/09/17 12:13:49;;;;;;;;;;;;;;;21.81;66.90;101298.66;5076921;28;1551;-65
2021/09/17 12:16:14;;;;;;;;;;;;;;;21.78;67.22;101298.97;5070127;28;1458;-65
2021/09/17 12:18:39;;;;;;;;;;;;;;;21.80;67.18;101291.53;5080672;28;1094;-65
2021/09/17 12:21:04;;;;;;;;;;;;;;;21.81;66.78;101285.09;5059819;28;1897;-66
2021/09/17 12:23:30;;;;;;;;;;;;;;;21.80;67.14;101284.22;5075995;28;853;-66
2021/09/17 12:25:55;;;;;;;;;;;;;;;21.80;67.24;101286.94;5077063;28;1704;-64
2021/09/17 12:28:20;;;;;;;;;;;;;;;21.78;67.26;101290.81;5076886;28;937;-65
2021/09/17 12:30:45;;;;;;;;;;;;;;;21.77;67.33;101276.41;5075918;28;1994;-64
2021/09/17 12:33:10;;;;;;;;;;;;;;;21.78;67.33;101283.53;5076415;28;946;-67
2021/09/17 12:35:35;;;;;;;;;;;;;;;21.76;67.40;101290.13;5076058;28;1250;-64